»·PEaware :: N8171V KAVX-KSAN

N8171V :: KAVX-KSAN

FLIGHT INFORMATION

Flight Status: Arrived
Operator: Privately registered:
United States
More flights under this callsign
Pilot: Mark O. (12591)
Aircraft: CESSNA 210 CENTURION
(C210)
More flights by this aircraft type
Origin: KAVX Catalina
United States
Destination: KSAN San Diego Intl-Lindbergh
United States
More flights between these airports :: More routes between these airports
Route: SXC V208 OCN V23 MZB
File this flight plan on PilotEdge
Remarks: Attempt at I-8
Altitude:
(Current/Filed)
5,000ft
Speed:
(Current/Filed)
140kts
Departed: 26-Nov-17 12:07 PM
Arrived: 26-Nov-17 01:00 PM
Distance/Time
Traveled:
74nm/0:53
Distance/Time
To Go:
Arrived

Flight Plot

Page will automatically refresh every two minutes.


Map Options




Map Legend


Flown Route
Filed Route
Departure Airport
Arrival Airport
Navaid (VOR, NDB)
Fix

Horizontal Profiles

Position Reports

Time Latitude Longitude Heading Altitude Ground
Speed
26-Nov-17 11:42 33.403241 -118.415835 52 1553ft 0kts
26-Nov-17 11:43 33.403241 -118.415835 52 1553ft 0kts
26-Nov-17 11:44 33.403241 -118.415835 52 1553ft 0kts
26-Nov-17 11:45 33.403241 -118.415835 52 1553ft 0kts
26-Nov-17 11:46 33.403241 -118.415835 52 1553ft 0kts
26-Nov-17 11:47 33.403241 -118.415835 52 1553ft 0kts
26-Nov-17 11:48 33.403241 -118.415835 52 1553ft 0kts
26-Nov-17 11:49 33.403241 -118.415835 52 1553ft 0kts
26-Nov-17 11:50 33.403241 -118.415835 52 1553ft 0kts
26-Nov-17 11:51 33.403241 -118.415835 52 1553ft 0kts
26-Nov-17 11:52 33.403241 -118.415835 52 1553ft 0kts
26-Nov-17 11:53 33.403241 -118.415835 52 1553ft 0kts
26-Nov-17 11:54 33.403241 -118.415835 52 1553ft 0kts
26-Nov-17 11:55 33.403241 -118.415835 52 1553ft 0kts
26-Nov-17 11:56 33.403241 -118.415835 52 1553ft 0kts
26-Nov-17 11:57 33.403241 -118.415835 52 1553ft 0kts
26-Nov-17 11:58 33.403241 -118.415835 52 1553ft 0kts
26-Nov-17 11:59 33.403241 -118.415835 52 1553ft 0kts
26-Nov-17 12:00 33.403241 -118.415835 52 1553ft 0kts
26-Nov-17 12:01 33.403241 -118.415835 52 1553ft 0kts
26-Nov-17 12:02 33.403241 -118.415835 52 1553ft 0kts
26-Nov-17 12:03 33.403241 -118.415835 52 1553ft 0kts
26-Nov-17 12:04 33.403241 -118.415835 52 1553ft 0kts
26-Nov-17 12:05 33.403241 -118.415835 52 1553ft 0kts
26-Nov-17 12:06 33.403241 -118.415835 52 1553ft 0kts
26-Nov-17 12:07 33.403241 -118.415835 52 1553ft 0kts
26-Nov-17 12:08 33.403241 -118.415835 52 1553ft 0kts
26-Nov-17 12:09 33.403361 -118.415833 59 1553ft 7kts
26-Nov-17 12:10 33.404377 -118.415014 352 1553ft 6kts
26-Nov-17 12:11 33.406615 -118.412328 54 1553ft 16kts
26-Nov-17 12:12 33.406138 -118.413746 238 1553ft 65kts
26-Nov-17 12:13 33.392574 -118.438299 235 2522ft 107kts
26-Nov-17 12:14 33.366807 -118.454467 137 3345ft 141kts
26-Nov-17 12:15 33.359189 -118.406603 96 4138ft 154kts
26-Nov-17 12:16 33.364668 -118.354444 85 4840ft 161kts
26-Nov-17 12:17 33.359634 -118.300056 99 4974ft 168kts
26-Nov-17 12:18 33.352493 -118.244413 99 4974ft 169kts
26-Nov-17 12:19 33.345706 -118.188653 98 4974ft 170kts
26-Nov-17 12:20 33.338954 -118.132752 99 4973ft 168kts
26-Nov-17 12:21 33.331771 -118.077670 100 4974ft 168kts
26-Nov-17 12:22 33.324408 -118.022729 100 4974ft 167kts
26-Nov-17 12:23 33.317020 -117.968432 99 4984ft 165kts
26-Nov-17 12:24 33.309658 -117.914343 99 4986ft 164kts
26-Nov-17 12:25 33.302431 -117.861501 99 4990ft 157kts
26-Nov-17 12:26 33.295411 -117.810349 99 4991ft 155kts
26-Nov-17 12:27 33.288464 -117.759061 100 4980ft 158kts
26-Nov-17 12:28 33.281108 -117.706466 102 4973ft 161kts
26-Nov-17 12:29 33.273841 -117.653541 97 4995ft 161kts
26-Nov-17 12:30 33.266317 -117.600486 99 5014ft 162kts
26-Nov-17 12:31 33.258772 -117.546927 108 4976ft 164kts
26-Nov-17 12:32 33.251538 -117.494082 96 4996ft 160kts
26-Nov-17 12:33 33.244004 -117.441958 101 4990ft 157kts
26-Nov-17 12:34 33.225973 -117.398890 154 5000ft 154kts
26-Nov-17 12:35 33.187026 -117.376971 162 4965ft 155kts
26-Nov-17 12:36 33.145918 -117.361672 161 4964ft 154kts
26-Nov-17 12:37 33.105843 -117.346643 162 4964ft 154kts
26-Nov-17 12:38 33.065092 -117.331459 162 4964ft 154kts
26-Nov-17 12:39 33.024162 -117.316145 162 4964ft 153kts
26-Nov-17 12:40 32.984539 -117.298467 127 4952ft 154kts
26-Nov-17 12:41 32.973180 -117.249701 102 4964ft 153kts
26-Nov-17 12:42 32.963427 -117.200288 102 4964ft 153kts
26-Nov-17 12:43 32.954035 -117.151019 102 4964ft 153kts
26-Nov-17 12:44 32.944944 -117.101512 102 4964ft 153kts
26-Nov-17 12:45 32.935874 -117.052051 102 4964ft 152kts
26-Nov-17 12:46 32.926845 -117.002761 102 4964ft 152kts
26-Nov-17 12:47 32.917973 -116.954463 102 4990ft 149kts
26-Nov-17 12:48 32.909111 -116.906208 102 4991ft 149kts
26-Nov-17 12:49 32.900216 -116.857748 102 4991ft 152kts
26-Nov-17 12:50 32.884963 -116.814199 166 4990ft 153kts
26-Nov-17 12:51 32.842789 -116.821319 190 4991ft 154kts
26-Nov-17 12:52 32.800622 -116.830445 190 4986ft 154kts
26-Nov-17 12:53 32.757579 -116.839490 190 4955ft 158kts
26-Nov-17 12:54 32.714242 -116.848548 190 4955ft 158kts
26-Nov-17 12:55 32.670960 -116.857583 190 4955ft 158kts
26-Nov-17 12:56 32.661850 -116.898322 290 4956ft 151kts
26-Nov-17 12:57 32.675014 -116.949251 288 4341ft 173kts
26-Nov-17 12:58 32.688195 -117.003002 287 3312ft 165kts
26-Nov-17 12:59 32.698462 -117.045048 285 2636ft 121kts
26-Nov-17 13:00 32.706436 -117.077955 287 1975ft 81kts
26-Nov-17 13:01 32.713381 -117.106682 285 1510ft 98kts
26-Nov-17 13:02 32.720708 -117.136640 286 786ft 92kts
26-Nov-17 13:03 32.726847 -117.161603 284 443ft 68kts
26-Nov-17 13:04 32.732206 -117.183827 281 19ft 58kts
26-Nov-17 13:05 32.732380 -117.189067 284 17ft 0kts
26-Nov-17 13:06 32.732380 -117.189067 284 17ft 0kts
26-Nov-17 13:07 32.732495 -117.190444 207 17ft 15kts
26-Nov-17 13:08 32.730671 -117.191022 107 17ft 0kts
26-Nov-17 13:09 32.730671 -117.191022 107 17ft 0kts
26-Nov-17 13:10 32.730671 -117.191022 107 17ft 0kts
26-Nov-17 13:11 32.730671 -117.191022 107 17ft 0kts

Navigation Log

Ident Type
1. KAVX Airport
2. SXC Navaid
3. AVOLS Fix
4. PACIF Fix
5. HUBRD Fix
6. OCN Navaid
7. HURSI Fix
8. CARIF Fix
9. MZB Navaid
10. KSAN Airport